createdAt,value
2023-04-30T00:06:39.635Z,74465.59
2023-04-30T00:16:49.140Z,74491.91
2023-04-30T00:26:53.488Z,74495.94
2023-04-30T00:36:58.010Z,74487.84
2023-04-30T00:47:07.392Z,74500.00
2023-04-30T00:57:13.034Z,74508.09
2023-04-30T01:07:17.367Z,74516.19
2023-04-30T01:17:45.551Z,74546.53
2023-04-30T01:28:08.388Z,74556.66
2023-04-30T01:38:22.219Z,74556.66
2023-04-30T01:48:43.161Z,74574.84
2023-04-30T01:58:47.104Z,74597.09
2023-04-30T02:08:50.133Z,74605.19
2023-04-30T02:18:57.200Z,74627.47
2023-04-30T02:29:02.252Z,74651.75
2023-04-30T02:39:04.391Z,74674.00
2023-04-30T02:49:10.735Z,74690.19
2023-04-30T02:59:13.755Z,74722.56
2023-04-30T03:09:18.956Z,74734.69
2023-04-30T03:19:25.677Z,74761.00
2023-04-30T03:29:33.991Z,74763.03
2023-04-30T03:39:36.182Z,74795.38
2023-04-30T03:49:40.709Z,74819.66
2023-04-30T03:59:47.381Z,74900.59
2023-04-30T04:09:49.819Z,74963.34
2023-04-30T04:19:55.550Z,75013.91
2023-04-30T04:30:00.391Z,75034.16
2023-04-30T04:40:03.119Z,75050.34
2023-04-30T04:50:05.820Z,75052.38
2023-04-30T05:00:15.810Z,75058.44
2023-04-30T05:10:18.236Z,75058.44
2023-04-30T05:20:22.645Z,75060.47
2023-04-30T05:30:29.267Z,75107.00
2023-04-30T05:40:32.681Z,75104.97
2023-04-30T05:50:44.582Z,75086.75
2023-04-30T06:00:52.537Z,75054.38
2023-04-30T06:10:57.482Z,75044.28
2023-04-30T06:21:02.179Z,74971.44
2023-04-30T06:31:04.500Z,74827.75
2023-04-30T06:41:06.805Z,74833.84
2023-04-30T06:51:10.614Z,74856.09
2023-04-30T07:01:15.937Z,74767.06
2023-04-30T07:11:18.237Z,74582.94
2023-04-30T07:21:20.704Z,74435.25
2023-04-30T07:31:26.393Z,74536.41
2023-04-30T07:41:29.494Z,74479.75
2023-04-30T07:51:36.439Z,74435.25
2023-04-30T08:01:45.792Z,74413.00
2023-04-30T08:11:50.338Z,74479.75
2023-04-30T08:21:56.256Z,74443.34
2023-04-30T08:32:06.215Z,74382.66
2023-04-30T08:42:14.574Z,74489.88
2023-04-30T08:52:20.123Z,74534.38
2023-04-30T09:02:22.686Z,74453.47
2023-04-30T09:12:25.304Z,74552.59
2023-04-30T09:22:28.375Z,74623.41
2023-04-30T09:32:32.160Z,74694.22
2023-04-30T09:42:36.061Z,74678.03
2023-04-30T09:52:40.965Z,74742.78
2023-04-30T10:02:43.824Z,74702.31
2023-04-30T10:12:54.857Z,74726.59
2023-04-30T10:22:59.491Z,74730.66
2023-04-30T10:33:07.747Z,74661.84
2023-04-30T10:43:11.707Z,74674.00
2023-04-30T10:53:20.204Z,74682.09
2023-04-30T11:03:26.490Z,74700.28
2023-04-30T11:13:36.469Z,74684.09
2023-04-30T11:23:47.347Z,74680.06
2023-04-30T11:33:56.011Z,74718.50
2023-04-30T11:44:05.728Z,74750.88
2023-04-30T11:54:14.585Z,74744.81
2023-04-30T12:04:17.177Z,74738.75
2023-04-30T12:14:29.318Z,74748.84
2023-04-30T12:24:32.805Z,74730.66
2023-04-30T12:34:39.853Z,74722.56
2023-04-30T12:44:45.002Z,74698.28
2023-04-30T12:54:50.196Z,74700.28
2023-04-30T13:04:53.608Z,74667.91
2023-04-30T13:14:57.658Z,74710.41
2023-04-30T13:25:01.554Z,74671.97
2023-04-30T13:35:07.350Z,74674.00
2023-04-30T13:45:11.541Z,74706.38
2023-04-30T13:55:17.616Z,74674.00
2023-04-30T14:05:20.884Z,74657.81
2023-04-30T14:15:25.388Z,74674.00
2023-04-30T14:25:28.852Z,74714.47
2023-04-30T14:35:33.861Z,74688.16
2023-04-30T14:45:40.216Z,74714.47
2023-04-30T14:55:43.525Z,74722.56
2023-04-30T15:05:50.168Z,74742.78
2023-04-30T15:15:57.436Z,74734.69
2023-04-30T15:26:01.594Z,74740.75
2023-04-30T15:36:09.297Z,74746.84
2023-04-30T15:46:19.375Z,74777.19
2023-04-30T15:56:26.892Z,74775.16
2023-04-30T16:06:32.938Z,74787.28
2023-04-30T16:16:42.192Z,74791.34
2023-04-30T16:26:44.370Z,74815.63
2023-04-30T16:36:48.618Z,74833.84
2023-04-30T16:46:53.020Z,74856.09
2023-04-30T16:56:59.543Z,74872.28
2023-04-30T17:07:02.036Z,74928.94
2023-04-30T17:17:07.812Z,74928.94
2023-04-30T17:27:18.812Z,74957.25
2023-04-30T17:37:24.893Z,74991.66
2023-04-30T17:47:34.448Z,75026.06
2023-04-30T17:57:39.691Z,75048.31
2023-04-30T18:07:46.458Z,75086.75
2023-04-30T18:17:49.447Z,75102.94
2023-04-30T18:27:51.765Z,75125.22
2023-04-30T18:38:00.836Z,75153.53
2023-04-30T18:48:16.575Z,75175.78
2023-04-30T18:58:22.177Z,75194.00
2023-04-30T19:08:26.999Z,75212.22
2023-04-30T19:18:35.451Z,75246.63
2023-04-30T19:28:47.412Z,75252.69
2023-04-30T19:38:52.482Z,75268.88
2023-04-30T19:48:54.824Z,75305.31
2023-04-30T19:58:59.405Z,75311.38
2023-04-30T20:09:01.791Z,75325.53
2023-04-30T20:19:07.759Z,75345.78
2023-04-30T20:29:12.799Z,75370.06
2023-04-30T20:39:18.649Z,75382.19
2023-04-30T20:49:27.284Z,75398.38
2023-04-30T20:59:29.469Z,75414.56
2023-04-30T21:09:37.214Z,75432.78
2023-04-30T21:19:41.833Z,75455.06
2023-04-30T21:29:51.331Z,75479.34
2023-04-30T21:39:58.114Z,75505.66
2023-04-30T21:50:03.451Z,75538.03
2023-04-30T22:00:17.710Z,75564.34
2023-04-30T22:10:27.655Z,75592.66
2023-04-30T22:20:32.011Z,75653.38
2023-04-30T22:30:36.714Z,75714.09
2023-04-30T22:40:42.260Z,75754.56
2023-04-30T22:50:51.716Z,75795.03
2023-04-30T23:00:53.967Z,75829.44
2023-04-30T23:11:01.883Z,75867.91
2023-04-30T23:21:04.250Z,75884.09
2023-04-30T23:31:11.549Z,75904.34
2023-04-30T23:41:16.532Z,75920.53
2023-04-30T23:51:19.329Z,75936.72
